Terminal Aerodrome Forecast
Issued by NWS Mt. Holly, NJ

Current Version | Previous Version | Text Only | Print | Product List | Glossary On
Versions: 1 2 3 4 5 6 7 8 9 10 11 12 13 14 15 16 17 18 19 20 21
000
FTUS41 KPHI 010500
TAFPHL
TAF
KPHL 010520Z 0106/0212 VRB04KT P6SM FEW060 BKN200
     FM011300 20008KT P6SM SCT050 BKN200
     FM020000 VRB04KT P6SM OVC050
     FM020800 VRB04KT 5SM SHRA BR OVC040=

USA.gov is the U.S. government's official web portal to all federal, state and local government web resources and services.